KUKT/UKT METAR and TAF weather

Enter ICAO airport designator
Station Type Date Time Source
KUKT METAR 2019/02/23 00:35 UTC NOAA

KUKT 230035Z AUTO VRB03KT 10SM CLR 03/M04 A3042 RMK A01


Station Type Date Time Source
KUKT Decoded METAR 2019/02/23 00:35 UTC NOAA

Quakertown, Quakertown Airport, PA, United States (KUKT) 40-26-06N 075-22-54W
Feb 22, 2019 - 07:35 PM EST / 2019.02.23 0035 UTC
Wind: Variable at 3 MPH (3 KT):0
Visibility: 10 mile(s):0
Sky conditions: clear
Temperature: 37 F (3 C)
Dew Point: 24 F (-4 C)
Relative Humidity: 59%
Pressure (altimeter): 30.42 in. Hg (1030 hPa)
ob: KUKT 230035Z AUTO VRB03KT 10SM CLR 03/M04 A3042 RMK A01
cycle: 0

Station Type Date Time Source
KUKT TAF UTC NOAA

Error!


Example: see airport list